sensor_id;sensor_type;location;lat;lon;timestamp;pressure;altitude;pressure_sealevel;temperature
70831;BMP180;58451;51.550;7.208;2023-07-20T00:01:27;100654.80;;;16.50
70831;BMP180;58451;51.550;7.208;2023-07-20T00:03:14;100651.00;;;16.50
70831;BMP180;58451;51.550;7.208;2023-07-20T00:04:51;100650.20;;;16.50
70831;BMP180;58451;51.550;7.208;2023-07-20T00:06:24;100650.40;;;16.50
70831;BMP180;58451;51.550;7.208;2023-07-20T00:07:59;100647.80;;;16.50
70831;BMP180;58451;51.550;7.208;2023-07-20T00:09:30;100646.40;;;16.50
70831;BMP180;58451;51.550;7.208;2023-07-20T00:11:02;100651.20;;;16.50
70831;BMP180;58451;51.550;7.208;2023-07-20T00:12:35;100646.40;;;16.50
70831;BMP180;58451;51.550;7.208;2023-07-20T00:14:07;100646.20;;;16.50
70831;BMP180;58451;51.550;7.208;2023-07-20T00:15:39;100646.00;;;16.56
70831;BMP180;58451;51.550;7.208;2023-07-20T00:17:11;100644.40;;;16.60
70831;BMP180;58451;51.550;7.208;2023-07-20T00:18:43;100653.60;;;16.60
70831;BMP180;58451;51.550;7.208;2023-07-20T00:20:15;100643.00;;;16.60
70831;BMP180;58451;51.550;7.208;2023-07-20T00:21:47;100645.00;;;16.60
70831;BMP180;58451;51.550;7.208;2023-07-20T00:23:19;100641.60;;;16.60
70831;BMP180;58451;51.550;7.208;2023-07-20T00:24:54;100638.80;;;16.60
70831;BMP180;58451;51.550;7.208;2023-07-20T00:26:26;100639.60;;;16.60
70831;BMP180;58451;51.550;7.208;2023-07-20T00:27:57;100640.40;;;16.60
70831;BMP180;58451;51.550;7.208;2023-07-20T00:29:29;100637.80;;;16.60
70831;BMP180;58451;51.550;7.208;2023-07-20T00:31:01;100641.40;;;16.60
70831;BMP180;58451;51.550;7.208;2023-07-20T00:32:34;100640.20;;;16.60
70831;BMP180;58451;51.550;7.208;2023-07-20T00:34:06;100633.40;;;16.60
70831;BMP180;58451;51.550;7.208;2023-07-20T00:35:39;100636.60;;;16.60
70831;BMP180;58451;51.550;7.208;2023-07-20T00:37:11;100631.00;;;16.60
70831;BMP180;58451;51.550;7.208;2023-07-20T00:38:43;100632.80;;;16.60
70831;BMP180;58451;51.550;7.208;2023-07-20T00:40:15;100631.20;;;16.60
70831;BMP180;58451;51.550;7.208;2023-07-20T00:41:47;100632.80;;;16.60
70831;BMP180;58451;51.550;7.208;2023-07-20T00:43:19;100634.20;;;16.60
70831;BMP180;58451;51.550;7.208;2023-07-20T00:44:51;100631.60;;;16.54
70831;BMP180;58451;51.550;7.208;2023-07-20T00:46:24;100632.40;;;16.52
70831;BMP180;58451;51.550;7.208;2023-07-20T00:47:57;100635.60;;;16.50
70831;BMP180;58451;51.550;7.208;2023-07-20T00:49:29;100631.40;;;16.50
70831;BMP180;58451;51.550;7.208;2023-07-20T00:51:02;100629.60;;;16.50
70831;BMP180;58451;51.550;7.208;2023-07-20T00:52:34;100626.80;;;16.50
70831;BMP180;58451;51.550;7.208;2023-07-20T00:54:07;100625.80;;;16.50
70831;BMP180;58451;51.550;7.208;2023-07-20T00:55:40;100626.00;;;16.50
70831;BMP180;58451;51.550;7.208;2023-07-20T00:57:15;100629.40;;;16.50
70831;BMP180;58451;51.550;7.208;2023-07-20T00:58:47;100628.60;;;16.50
70831;BMP180;58451;51.550;7.208;2023-07-20T01:00:19;100628.60;;;16.46
70831;BMP180;58451;51.550;7.208;2023-07-20T01:01:52;100628.20;;;16.44
70831;BMP180;58451;51.550;7.208;2023-07-20T01:03:23;100627.00;;;16.40
70831;BMP180;58451;51.550;7.208;2023-07-20T01:04:56;100631.20;;;16.40
70831;BMP180;58451;51.550;7.208;2023-07-20T01:06:48;100628.00;;;16.40
70831;BMP180;58451;51.550;7.208;2023-07-20T01:08:33;100623.60;;;16.40
70831;BMP180;58451;51.550;7.208;2023-07-20T01:10:33;100624.80;;;16.40
70831;BMP180;58451;51.550;7.208;2023-07-20T01:12:26;100628.80;;;16.40
70831;BMP180;58451;51.550;7.208;2023-07-20T01:13:59;100630.40;;;16.42
70831;BMP180;58451;51.550;7.208;2023-07-20T01:15:33;100630.40;;;16.42
70831;BMP180;58451;51.550;7.208;2023-07-20T01:17:05;100625.20;;;16.50
70831;BMP180;58451;51.550;7.208;2023-07-20T01:18:37;100625.80;;;16.48
70831;BMP180;58451;51.550;7.208;2023-07-20T01:20:14;100626.80;;;16.50
70831;BMP180;58451;51.550;7.208;2023-07-20T01:22:03;100624.20;;;16.44
70831;BMP180;58451;51.550;7.208;2023-07-20T01:24:11;100624.80;;;16.46
70831;BMP180;58451;51.550;7.208;2023-07-20T01:32:18;100624.60;;;16.40
70831;BMP180;58451;51.550;7.208;2023-07-20T01:33:56;100617.00;;;16.40
70831;BMP180;58451;51.550;7.208;2023-07-20T01:35:30;100618.00;;;16.40
70831;BMP180;58451;51.550;7.208;2023-07-20T01:37:03;100614.40;;;16.40
70831;BMP180;58451;51.550;7.208;2023-07-20T01:38:37;100612.80;;;16.40
70831;BMP180;58451;51.550;7.208;2023-07-20T01:40:12;100611.40;;;16.40
70831;BMP180;58451;51.550;7.208;2023-07-20T01:41:45;100605.60;;;16.40
70831;BMP180;58451;51.550;7.208;2023-07-20T01:43:17;100611.60;;;16.40
70831;BMP180;58451;51.550;7.208;2023-07-20T01:44:52;100607.00;;;16.30
70831;BMP180;58451;51.550;7.208;2023-07-20T01:46:27;100600.00;;;16.30
70831;BMP180;58451;51.550;7.208;2023-07-20T01:47:59;100606.00;;;16.30
70831;BMP180;58451;51.550;7.208;2023-07-20T01:49:31;100605.40;;;16.20
70831;BMP180;58451;51.550;7.208;2023-07-20T01:51:03;100605.00;;;16.20
70831;BMP180;58451;51.550;7.208;2023-07-20T01:52:35;100607.80;;;16.20
70831;BMP180;58451;51.550;7.208;2023-07-20T01:54:07;100607.60;;;16.20
70831;BMP180;58451;51.550;7.208;2023-07-20T01:55:40;100608.40;;;16.14
70831;BMP180;58451;51.550;7.208;2023-07-20T01:57:12;100607.60;;;16.12
70831;BMP180;58451;51.550;7.208;2023-07-20T01:58:44;100609.00;;;16.10
70831;BMP180;58451;51.550;7.208;2023-07-20T02:00:17;100608.00;;;16.10
70831;BMP180;58451;51.550;7.208;2023-07-20T02:01:52;100606.00;;;16.10
70831;BMP180;58451;51.550;7.208;2023-07-20T02:03:24;100606.00;;;16.10
70831;BMP180;58451;51.550;7.208;2023-07-20T02:04:57;100601.80;;;16.10
70831;BMP180;58451;51.550;7.208;2023-07-20T02:06:31;100600.80;;;16.10
70831;BMP180;58451;51.550;7.208;2023-07-20T02:08:03;100596.40;;;16.10
70831;BMP180;58451;51.550;7.208;2023-07-20T02:09:35;100594.80;;;16.10
70831;BMP180;58451;51.550;7.208;2023-07-20T02:11:07;100592.20;;;16.10
70831;BMP180;58451;51.550;7.208;2023-07-20T02:12:39;100588.60;;;16.10
70831;BMP180;58451;51.550;7.208;2023-07-20T02:14:11;100586.20;;;16.12
70831;BMP180;58451;51.550;7.208;2023-07-20T02:15:43;100591.80;;;16.14
70831;BMP180;58451;51.550;7.208;2023-07-20T02:17:15;100589.80;;;16.14
70831;BMP180;58451;51.550;7.208;2023-07-20T02:18:47;100583.80;;;16.20
70831;BMP180;58451;51.550;7.208;2023-07-20T02:20:19;100588.00;;;16.20
70831;BMP180;58451;51.550;7.208;2023-07-20T02:21:51;100595.00;;;16.20
70831;BMP180;58451;51.550;7.208;2023-07-20T02:23:22;100595.60;;;16.20
70831;BMP180;58451;51.550;7.208;2023-07-20T02:24:54;100597.60;;;16.20
70831;BMP180;58451;51.550;7.208;2023-07-20T02:26:26;100601.00;;;16.20
70831;BMP180;58451;51.550;7.208;2023-07-20T02:27:58;100604.60;;;16.20
70831;BMP180;58451;51.550;7.208;2023-07-20T02:29:30;100613.80;;;16.20
70831;BMP180;58451;51.550;7.208;2023-07-20T02:31:02;100623.20;;;16.20
70831;BMP180;58451;51.550;7.208;2023-07-20T02:32:35;100631.20;;;16.20
70831;BMP180;58451;51.550;7.208;2023-07-20T02:34:07;100635.80;;;16.10
70831;BMP180;58451;51.550;7.208;2023-07-20T02:35:40;100638.80;;;16.10
70831;BMP180;58451;51.550;7.208;2023-07-20T02:37:12;100631.20;;;16.00
70831;BMP180;58451;51.550;7.208;2023-07-20T02:38:44;100624.20;;;16.00
70831;BMP180;58451;51.550;7.208;2023-07-20T02:40:16;100621.80;;;15.90
70831;BMP180;58451;51.550;7.208;2023-07-20T02:41:48;100617.80;;;15.90
70831;BMP180;58451;51.550;7.208;2023-07-20T02:43:20;100628.00;;;15.80
70831;BMP180;58451;51.550;7.208;2023-07-20T02:44:52;100631.00;;;15.70
70831;BMP180;58451;51.550;7.208;2023-07-20T02:46:24;100624.40;;;15.60
70831;BMP180;58451;51.550;7.208;2023-07-20T02:47:56;100623.20;;;15.52
70831;BMP180;58451;51.550;7.208;2023-07-20T02:49:28;100628.80;;;15.48
70831;BMP180;58451;51.550;7.208;2023-07-20T02:51:00;100625.80;;;15.40
70831;BMP180;58451;51.550;7.208;2023-07-20T02:52:32;100628.80;;;15.30
70831;BMP180;58451;51.550;7.208;2023-07-20T02:54:04;100629.20;;;15.20
70831;BMP180;58451;51.550;7.208;2023-07-20T02:55:36;100627.60;;;15.20
70831;BMP180;58451;51.550;7.208;2023-07-20T03:03:14;100625.00;;;15.10
70831;BMP180;58451;51.550;7.208;2023-07-20T03:04:46;100623.80;;;15.08
70831;BMP180;58451;51.550;7.208;2023-07-20T03:06:17;100627.20;;;15.10
70831;BMP180;58451;51.550;7.208;2023-07-20T03:07:49;100625.60;;;15.00
70831;BMP180;58451;51.550;7.208;2023-07-20T03:09:22;100627.20;;;15.04
70831;BMP180;58451;51.550;7.208;2023-07-20T03:10:54;100629.20;;;15.10
70831;BMP180;58451;51.550;7.208;2023-07-20T03:12:26;100631.40;;;15.10
70831;BMP180;58451;51.550;7.208;2023-07-20T03:13:58;100632.40;;;15.10
70831;BMP180;58451;51.550;7.208;2023-07-20T03:15:30;100635.00;;;15.10
70831;BMP180;58451;51.550;7.208;2023-07-20T03:17:02;100634.60;;;15.10
70831;BMP180;58451;51.550;7.208;2023-07-20T03:18:35;100637.20;;;15.10
70831;BMP180;58451;51.550;7.208;2023-07-20T03:20:08;100640.20;;;15.10
70831;BMP180;58451;51.550;7.208;2023-07-20T03:21:41;100635.40;;;15.10
70831;BMP180;58451;51.550;7.208;2023-07-20T03:23:14;100636.80;;;15.10
70831;BMP180;58451;51.550;7.208;2023-07-20T03:24:47;100636.40;;;15.18
70831;BMP180;58451;51.550;7.208;2023-07-20T03:26:19;100639.40;;;15.20
70831;BMP180;58451;51.550;7.208;2023-07-20T03:27:52;100636.40;;;15.20
70831;BMP180;58451;51.550;7.208;2023-07-20T03:29:24;100640.00;;;15.20
70831;BMP180;58451;51.550;7.208;2023-07-20T03:30:57;100639.20;;;15.20
70831;BMP180;58451;51.550;7.208;2023-07-20T03:32:29;100639.20;;;15.20
70831;BMP180;58451;51.550;7.208;2023-07-20T03:34:01;100640.60;;;15.20
70831;BMP180;58451;51.550;7.208;2023-07-20T03:35:33;100638.20;;;15.20
70831;BMP180;58451;51.550;7.208;2023-07-20T03:37:05;100643.00;;;15.22
70831;BMP180;58451;51.550;7.208;2023-07-20T03:38:39;100641.80;;;15.26
70831;BMP180;58451;51.550;7.208;2023-07-20T03:40:11;100642.20;;;15.30
70831;BMP180;58451;51.550;7.208;2023-07-20T03:41:43;100645.60;;;15.30
70831;BMP180;58451;51.550;7.208;2023-07-20T03:43:15;100645.20;;;15.28
70831;BMP180;58451;51.550;7.208;2023-07-20T03:44:46;100645.00;;;15.30
70831;BMP180;58451;51.550;7.208;2023-07-20T03:46:19;100646.80;;;15.30
70831;BMP180;58451;51.550;7.208;2023-07-20T03:47:52;100648.00;;;15.30
70831;BMP180;58451;51.550;7.208;2023-07-20T03:49:24;100645.80;;;15.30
70831;BMP180;58451;51.550;7.208;2023-07-20T03:50:55;100645.20;;;15.30
70831;BMP180;58451;51.550;7.208;2023-07-20T03:52:28;100646.80;;;15.30
70831;BMP180;58451;51.550;7.208;2023-07-20T03:54:00;100651.00;;;15.30
70831;BMP180;58451;51.550;7.208;2023-07-20T03:55:31;100655.40;;;15.30
70831;BMP180;58451;51.550;7.208;2023-07-20T03:57:04;100654.00;;;15.30
70831;BMP180;58451;51.550;7.208;2023-07-20T03:58:36;100653.20;;;15.30
70831;BMP180;58451;51.550;7.208;2023-07-20T04:00:09;100656.60;;;15.30
70831;BMP180;58451;51.550;7.208;2023-07-20T04:01:44;100658.00;;;15.30
70831;BMP180;58451;51.550;7.208;2023-07-20T04:03:17;100660.20;;;15.30
70831;BMP180;58451;51.550;7.208;2023-07-20T04:04:50;100662.80;;;15.30
70831;BMP180;58451;51.550;7.208;2023-07-20T04:06:22;100663.20;;;15.30
70831;BMP180;58451;51.550;7.208;2023-07-20T04:07:55;100660.20;;;15.30
70831;BMP180;58451;51.550;7.208;2023-07-20T04:09:26;100659.40;;;15.30
70831;BMP180;58451;51.550;7.208;2023-07-20T04:11:02;100665.00;;;15.30
70831;BMP180;58451;51.550;7.208;2023-07-20T04:12:34;100664.40;;;15.30
70831;BMP180;58451;51.550;7.208;2023-07-20T04:14:06;100666.60;;;15.30
70831;BMP180;58451;51.550;7.208;2023-07-20T04:15:38;100667.80;;;15.30
70831;BMP180;58451;51.550;7.208;2023-07-20T04:17:10;100672.00;;;15.30
70831;BMP180;58451;51.550;7.208;2023-07-20T04:18:44;100674.80;;;15.30
70831;BMP180;58451;51.550;7.208;2023-07-20T04:20:16;100671.40;;;15.30
70831;BMP180;58451;51.550;7.208;2023-07-20T04:21:49;100666.40;;;15.30
70831;BMP180;58451;51.550;7.208;2023-07-20T04:23:21;100665.60;;;15.30
70831;BMP180;58451;51.550;7.208;2023-07-20T04:24:56;100667.80;;;15.30
70831;BMP180;58451;51.550;7.208;2023-07-20T04:26:28;100665.60;;;15.30
70831;BMP180;58451;51.550;7.208;2023-07-20T04:28:00;100668.00;;;15.30
70831;BMP180;58451;51.550;7.208;2023-07-20T04:29:32;100667.60;;;15.30
70831;BMP180;58451;51.550;7.208;2023-07-20T04:31:14;100669.00;;;15.30
70831;BMP180;58451;51.550;7.208;2023-07-20T04:32:48;100668.00;;;15.30
70831;BMP180;58451;51.550;7.208;2023-07-20T04:34:21;100669.00;;;15.30
70831;BMP180;58451;51.550;7.208;2023-07-20T04:35:54;100665.20;;;15.30
70831;BMP180;58451;51.550;7.208;2023-07-20T04:37:34;100663.00;;;15.30
70831;BMP180;58451;51.550;7.208;2023-07-20T04:39:07;100667.00;;;15.30
70831;BMP180;58451;51.550;7.208;2023-07-20T04:40:57;100665.00;;;15.30
70831;BMP180;58451;51.550;7.208;2023-07-20T04:42:29;100670.80;;;15.30
70831;BMP180;58451;51.550;7.208;2023-07-20T04:44:01;100670.60;;;15.30
70831;BMP180;58451;51.550;7.208;2023-07-20T04:45:34;100673.40;;;15.32
70831;BMP180;58451;51.550;7.208;2023-07-20T04:47:06;100675.40;;;15.40
70831;BMP180;58451;51.550;7.208;2023-07-20T04:48:41;100674.00;;;15.40
70831;BMP180;58451;51.550;7.208;2023-07-20T04:50:13;100677.80;;;15.44
70831;BMP180;58451;51.550;7.208;2023-07-20T04:51:45;100678.40;;;15.50
70831;BMP180;58451;51.550;7.208;2023-07-20T04:53:17;100682.80;;;15.50
70831;BMP180;58451;51.550;7.208;2023-07-20T04:54:50;100683.20;;;15.54
70831;BMP180;58451;51.550;7.208;2023-07-20T04:56:24;100690.20;;;15.60
70831;BMP180;58451;51.550;7.208;2023-07-20T04:57:57;100689.60;;;15.60
70831;BMP180;58451;51.550;7.208;2023-07-20T04:59:29;100691.40;;;15.60
70831;BMP180;58451;51.550;7.208;2023-07-20T05:01:01;100691.00;;;15.60
70831;BMP180;58451;51.550;7.208;2023-07-20T05:02:33;100688.80;;;15.70
70831;BMP180;58451;51.550;7.208;2023-07-20T05:04:05;100693.40;;;15.70
70831;BMP180;58451;51.550;7.208;2023-07-20T05:05:40;100699.80;;;15.78
70831;BMP180;58451;51.550;7.208;2023-07-20T05:07:12;100700.00;;;15.80
70831;BMP180;58451;51.550;7.208;2023-07-20T05:08:44;100695.00;;;15.80
70831;BMP180;58451;51.550;7.208;2023-07-20T05:10:17;100696.60;;;15.80
70831;BMP180;58451;51.550;7.208;2023-07-20T05:11:49;100696.60;;;15.80
70831;BMP180;58451;51.550;7.208;2023-07-20T05:13:21;100694.80;;;15.78
70831;BMP180;58451;51.550;7.208;2023-07-20T05:14:53;100698.60;;;15.70
70831;BMP180;58451;51.550;7.208;2023-07-20T05:16:25;100696.00;;;15.70
70831;BMP180;58451;51.550;7.208;2023-07-20T05:17:58;100701.60;;;15.70
70831;BMP180;58451;51.550;7.208;2023-07-20T05:19:30;100702.80;;;15.70
70831;BMP180;58451;51.550;7.208;2023-07-20T05:21:03;100705.20;;;15.70
70831;BMP180;58451;51.550;7.208;2023-07-20T05:22:36;100704.80;;;15.78
70831;BMP180;58451;51.550;7.208;2023-07-20T05:24:11;100702.00;;;15.80
70831;BMP180;58451;51.550;7.208;2023-07-20T05:25:43;100700.80;;;15.76
70831;BMP180;58451;51.550;7.208;2023-07-20T05:27:15;100702.60;;;15.70
70831;BMP180;58451;51.550;7.208;2023-07-20T05:28:47;100706.60;;;15.70
70831;BMP180;58451;51.550;7.208;2023-07-20T05:30:19;100710.60;;;15.70
70831;BMP180;58451;51.550;7.208;2023-07-20T05:31:51;100710.20;;;15.78
70831;BMP180;58451;51.550;7.208;2023-07-20T05:33:26;100706.80;;;15.80
70831;BMP180;58451;51.550;7.208;2023-07-20T05:34:58;100712.00;;;15.90
70831;BMP180;58451;51.550;7.208;2023-07-20T05:36:30;100710.60;;;15.90
70831;BMP180;58451;51.550;7.208;2023-07-20T05:38:03;100710.40;;;16.00
70831;BMP180;58451;51.550;7.208;2023-07-20T05:39:36;100712.80;;;16.04
70831;BMP180;58451;51.550;7.208;2023-07-20T05:41:08;100711.40;;;16.10
70831;BMP180;58451;51.550;7.208;2023-07-20T05:42:42;100707.00;;;16.20
70831;BMP180;58451;51.550;7.208;2023-07-20T05:44:14;100708.40;;;16.20
70831;BMP180;58451;51.550;7.208;2023-07-20T05:45:46;100707.40;;;16.30
70831;BMP180;58451;51.550;7.208;2023-07-20T05:47:19;100716.80;;;16.38
70831;BMP180;58451;51.550;7.208;2023-07-20T05:48:51;100714.00;;;16.40
70831;BMP180;58451;51.550;7.208;2023-07-20T05:50:23;100714.40;;;16.50
70831;BMP180;58451;51.550;7.208;2023-07-20T05:51:56;100721.20;;;16.50
70831;BMP180;58451;51.550;7.208;2023-07-20T05:53:28;100719.20;;;16.50
70831;BMP180;58451;51.550;7.208;2023-07-20T05:55:00;100721.80;;;16.50
70831;BMP180;58451;51.550;7.208;2023-07-20T05:56:32;100721.00;;;16.50
70831;BMP180;58451;51.550;7.208;2023-07-20T05:58:03;100724.20;;;16.60
70831;BMP180;58451;51.550;7.208;2023-07-20T05:59:35;100728.00;;;16.60
70831;BMP180;58451;51.550;7.208;2023-07-20T06:01:08;100728.20;;;16.50
70831;BMP180;58451;51.550;7.208;2023-07-20T06:02:40;100724.60;;;16.50
70831;BMP180;58451;51.550;7.208;2023-07-20T06:04:12;100729.60;;;16.50
70831;BMP180;58451;51.550;7.208;2023-07-20T06:05:45;100731.40;;;16.40
70831;BMP180;58451;51.550;7.208;2023-07-20T06:07:17;100727.40;;;16.48
70831;BMP180;58451;51.550;7.208;2023-07-20T06:08:48;100727.80;;;16.50
70831;BMP180;58451;51.550;7.208;2023-07-20T06:10:20;100728.80;;;16.60
70831;BMP180;58451;51.550;7.208;2023-07-20T06:11:53;100733.20;;;16.60
70831;BMP180;58451;51.550;7.208;2023-07-20T06:13:25;100731.20;;;16.58
70831;BMP180;58451;51.550;7.208;2023-07-20T06:15:02;100735.40;;;16.60
70831;BMP180;58451;51.550;7.208;2023-07-20T06:16:34;100739.40;;;16.60
70831;BMP180;58451;51.550;7.208;2023-07-20T06:18:07;100737.00;;;16.70
70831;BMP180;58451;51.550;7.208;2023-07-20T06:19:39;100737.60;;;16.76
70831;BMP180;58451;51.550;7.208;2023-07-20T06:21:10;100740.60;;;16.90
70831;BMP180;58451;51.550;7.208;2023-07-20T06:22:44;100732.60;;;17.00
70831;BMP180;58451;51.550;7.208;2023-07-20T06:24:19;100738.60;;;17.20
70831;BMP180;58451;51.550;7.208;2023-07-20T06:25:51;100740.60;;;17.28
70831;BMP180;58451;51.550;7.208;2023-07-20T06:27:23;100740.40;;;17.40
70831;BMP180;58451;51.550;7.208;2023-07-20T06:28:55;100743.00;;;17.40
70831;BMP180;58451;51.550;7.208;2023-07-20T06:30:27;100743.60;;;17.40
70831;BMP180;58451;51.550;7.208;2023-07-20T06:31:59;100750.00;;;17.30
70831;BMP180;58451;51.550;7.208;2023-07-20T06:33:31;100747.20;;;17.30
70831;BMP180;58451;51.550;7.208;2023-07-20T06:35:03;100749.60;;;17.30
70831;BMP180;58451;51.550;7.208;2023-07-20T06:36:35;100752.20;;;17.20
70831;BMP180;58451;51.550;7.208;2023-07-20T06:38:07;100754.00;;;17.20
70831;BMP180;58451;51.550;7.208;2023-07-20T06:39:42;100747.00;;;17.20
70831;BMP180;58451;51.550;7.208;2023-07-20T06:41:18;100745.40;;;17.20
70831;BMP180;58451;51.550;7.208;2023-07-20T06:42:53;100747.00;;;17.10
70831;BMP180;58451;51.550;7.208;2023-07-20T06:44:28;100747.00;;;17.10
70831;BMP180;58451;51.550;7.208;2023-07-20T06:46:00;100750.60;;;17.20
70831;BMP180;58451;51.550;7.208;2023-07-20T06:47:32;100751.40;;;17.20
70831;BMP180;58451;51.550;7.208;2023-07-20T06:49:06;100754.60;;;17.20
70831;BMP180;58451;51.550;7.208;2023-07-20T06:50:43;100750.80;;;17.20
70831;BMP180;58451;51.550;7.208;2023-07-20T06:52:15;100746.40;;;17.20
70831;BMP180;58451;51.550;7.208;2023-07-20T06:53:47;100750.80;;;17.28
70831;BMP180;58451;51.550;7.208;2023-07-20T06:55:19;100748.40;;;17.20
70831;BMP180;58451;51.550;7.208;2023-07-20T06:56:54;100746.60;;;17.20
70831;BMP180;58451;51.550;7.208;2023-07-20T06:58:29;100748.40;;;17.20
70831;BMP180;58451;51.550;7.208;2023-07-20T07:00:01;100739.20;;;17.18
70831;BMP180;58451;51.550;7.208;2023-07-20T07:01:33;100742.20;;;17.20
70831;BMP180;58451;51.550;7.208;2023-07-20T07:03:05;100746.20;;;17.24
70831;BMP180;58451;51.550;7.208;2023-07-20T07:04:37;100746.80;;;17.30
70831;BMP180;58451;51.550;7.208;2023-07-20T07:06:09;100745.60;;;17.40
70831;BMP180;58451;51.550;7.208;2023-07-20T07:07:41;100746.00;;;17.50
70831;BMP180;58451;51.550;7.208;2023-07-20T07:09:14;100747.00;;;17.70
70831;BMP180;58451;51.550;7.208;2023-07-20T07:10:45;100749.00;;;17.90
70831;BMP180;58451;51.550;7.208;2023-07-20T07:12:17;100751.80;;;18.02
70831;BMP180;58451;51.550;7.208;2023-07-20T07:13:49;100752.00;;;18.10
70831;BMP180;58451;51.550;7.208;2023-07-20T07:15:22;100756.60;;;18.22
70831;BMP180;58451;51.550;7.208;2023-07-20T07:16:55;100759.20;;;18.30
70831;BMP180;58451;51.550;7.208;2023-07-20T07:18:29;100760.40;;;18.40
70831;BMP180;58451;51.550;7.208;2023-07-20T07:20:03;100764.00;;;18.30
70831;BMP180;58451;51.550;7.208;2023-07-20T07:21:37;100766.20;;;18.28
70831;BMP180;58451;51.550;7.208;2023-07-20T07:23:09;100766.40;;;18.20
70831;BMP180;58451;51.550;7.208;2023-07-20T07:24:41;100766.00;;;18.20
70831;BMP180;58451;51.550;7.208;2023-07-20T07:26:13;100766.20;;;18.30
70831;BMP180;58451;51.550;7.208;2023-07-20T07:27:45;100770.00;;;18.30
70831;BMP180;58451;51.550;7.208;2023-07-20T07:29:17;100769.20;;;18.20
70831;BMP180;58451;51.550;7.208;2023-07-20T07:30:50;100769.60;;;18.30
70831;BMP180;58451;51.550;7.208;2023-07-20T07:32:22;100769.80;;;18.40
70831;BMP180;58451;51.550;7.208;2023-07-20T07:33:54;100768.20;;;18.56
70831;BMP180;58451;51.550;7.208;2023-07-20T07:35:26;100771.40;;;18.76
70831;BMP180;58451;51.550;7.208;2023-07-20T07:36:57;100766.80;;;18.90
70831;BMP180;58451;51.550;7.208;2023-07-20T07:38:30;100770.40;;;18.90
70831;BMP180;58451;51.550;7.208;2023-07-20T07:40:22;100773.00;;;18.90
70831;BMP180;58451;51.550;7.208;2023-07-20T07:41:54;100777.80;;;18.90
70831;BMP180;58451;51.550;7.208;2023-07-20T07:43:25;100777.80;;;18.80
70831;BMP180;58451;51.550;7.208;2023-07-20T07:44:57;100774.80;;;18.88
70831;BMP180;58451;51.550;7.208;2023-07-20T07:46:29;100780.60;;;18.74
70831;BMP180;58451;51.550;7.208;2023-07-20T07:48:01;100783.80;;;18.60
70831;BMP180;58451;51.550;7.208;2023-07-20T07:49:33;100786.60;;;18.46
70831;BMP180;58451;51.550;7.208;2023-07-20T07:51:06;100785.80;;;18.40
70831;BMP180;58451;51.550;7.208;2023-07-20T07:52:37;100782.20;;;18.30
70831;BMP180;58451;51.550;7.208;2023-07-20T07:54:09;100784.00;;;18.20
70831;BMP180;58451;51.550;7.208;2023-07-20T07:55:41;100786.80;;;18.20
70831;BMP180;58451;51.550;7.208;2023-07-20T07:57:13;100787.20;;;18.26
70831;BMP180;58451;51.550;7.208;2023-07-20T07:58:45;100783.80;;;18.20
70831;BMP180;58451;51.550;7.208;2023-07-20T08:00:18;100785.60;;;18.26
70831;BMP180;58451;51.550;7.208;2023-07-20T08:01:50;100789.40;;;18.30
70831;BMP180;58451;51.550;7.208;2023-07-20T08:03:22;100788.00;;;18.30
70831;BMP180;58451;51.550;7.208;2023-07-20T08:04:56;100791.60;;;18.30
70831;BMP180;58451;51.550;7.208;2023-07-20T08:06:28;100796.40;;;18.20
70831;BMP180;58451;51.550;7.208;2023-07-20T08:08:02;100793.40;;;18.10
70831;BMP180;58451;51.550;7.208;2023-07-20T08:09:33;100786.00;;;18.10
70831;BMP180;58451;51.550;7.208;2023-07-20T08:11:05;100791.40;;;18.02
70831;BMP180;58451;51.550;7.208;2023-07-20T08:12:38;100793.20;;;18.00
70831;BMP180;58451;51.550;7.208;2023-07-20T08:14:10;100791.40;;;17.90
70831;BMP180;58451;51.550;7.208;2023-07-20T08:15:49;100793.80;;;17.90
70831;BMP180;58451;51.550;7.208;2023-07-20T08:17:23;100794.20;;;17.92
70831;BMP180;58451;51.550;7.208;2023-07-20T08:18:56;100798.60;;;18.10
70831;BMP180;58451;51.550;7.208;2023-07-20T08:20:28;100794.00;;;18.30
70831;BMP180;58451;51.550;7.208;2023-07-20T08:22:00;100798.40;;;18.48
70831;BMP180;58451;51.550;7.208;2023-07-20T08:23:32;100799.40;;;18.68
70831;BMP180;58451;51.550;7.208;2023-07-20T08:25:05;100802.60;;;18.80
70831;BMP180;58451;51.550;7.208;2023-07-20T08:26:37;100797.00;;;18.94
70831;BMP180;58451;51.550;7.208;2023-07-20T08:28:14;100801.60;;;19.00
70831;BMP180;58451;51.550;7.208;2023-07-20T08:29:46;100799.00;;;19.00
70831;BMP180;58451;51.550;7.208;2023-07-20T08:31:18;100798.60;;;19.08
70831;BMP180;58451;51.550;7.208;2023-07-20T08:32:50;100803.80;;;19.20
70831;BMP180;58451;51.550;7.208;2023-07-20T08:34:22;100802.20;;;19.40
70831;BMP180;58451;51.550;7.208;2023-07-20T08:36:02;100799.00;;;19.60
70831;BMP180;58451;51.550;7.208;2023-07-20T08:37:35;100796.60;;;19.76
70831;BMP180;58451;51.550;7.208;2023-07-20T08:39:07;100798.20;;;19.86
70831;BMP180;58451;51.550;7.208;2023-07-20T08:40:45;100803.20;;;19.90
70831;BMP180;58451;51.550;7.208;2023-07-20T08:42:17;100809.00;;;19.82
70831;BMP180;58451;51.550;7.208;2023-07-20T08:43:52;100809.00;;;19.70
70831;BMP180;58451;51.550;7.208;2023-07-20T08:45:33;100805.40;;;19.50
70831;BMP180;58451;51.550;7.208;2023-07-20T08:47:06;100803.80;;;19.60
70831;BMP180;58451;51.550;7.208;2023-07-20T08:48:41;100807.00;;;19.70
70831;BMP180;58451;51.550;7.208;2023-07-20T08:50:14;100807.20;;;19.80
70831;BMP180;58451;51.550;7.208;2023-07-20T08:51:48;100806.20;;;19.90
70831;BMP180;58451;51.550;7.208;2023-07-20T08:53:20;100804.00;;;20.04
70831;BMP180;58451;51.550;7.208;2023-07-20T08:54:53;100810.00;;;20.10
70831;BMP180;58451;51.550;7.208;2023-07-20T08:56:26;100808.80;;;20.10
70831;BMP180;58451;51.550;7.208;2023-07-20T08:58:00;100810.00;;;20.00
70831;BMP180;58451;51.550;7.208;2023-07-20T08:59:36;100814.40;;;20.10
70831;BMP180;58451;51.550;7.208;2023-07-20T09:01:08;100809.40;;;20.10
70831;BMP180;58451;51.550;7.208;2023-07-20T09:02:42;100816.00;;;20.20